<?xml version="1.0" encoding="UTF-8" standalone="no" ?>
<gpx xmlns="http://www.topografix.com/GPX/1/1" xmlns:xsi="http://www.w3.org/2001/XMLSchema-instance" xsi:schemaLocation="http://www.topografix.com/GPX/1/1 http://www.topografix.com/GPX/1/1/gpx.xsd" version="1.1" creator="VisuGPX - https://www.visugpx.com">
  <metadata>
    <name>ShortCut 2</name>
    <desc><![CDATA[

Distance: 21km
Elevation gain: 829m
Max altitude: 707m
Average speed: 9.5km/h
Points: 410]]></desc>
  </metadata>
  <wpt lat="43.73104" lon="3.4425">
    <ele>383</ele>
    <name><![CDATA[Refuge]]></name>
    <type><![CDATA[refuge]]></type>
  </wpt>
  <wpt lat="43.66274" lon="3.37643">
    <ele>141.3</ele>
    <name><![CDATA[Camping Sauvage]]></name>
    <type><![CDATA[refuge]]></type>
  </wpt>
  <wpt lat="43.66595" lon="3.36252">
    <ele>139.6</ele>
    <name><![CDATA[Bivouac Sauvage]]></name>
    <type><![CDATA[refuge]]></type>
  </wpt>
  <wpt lat="43.66274" lon="3.37641">
    <ele>141.4</ele>
    <name><![CDATA[Shelter-Capitelle]]></name>
    <type><![CDATA[refuge]]></type>
  </wpt>
  <wpt lat="43.66423" lon="3.37328">
    <ele>163.3</ele>
    <name><![CDATA[Chapelle Notre-Dame des Clans]]></name>
    <type><![CDATA[vue]]></type>
  </wpt>
  <wpt lat="43.743" lon="3.48597">
    <ele>839.7</ele>
    <name><![CDATA[Mont Saint Baudille (848 m)]]></name>
    <type><![CDATA[sommet]]></type>
  </wpt>
  <wpt lat="43.64552" lon="3.39031">
    <ele>147</ele>
    <name><![CDATA[Camping Club Lac du Salagou]]></name>
    <type><![CDATA[camping]]></type>
  </wpt>
  <wpt lat="43.64521" lon="3.38962">
    <ele>146.9</ele>
    <name><![CDATA[Eau]]></name>
    <type><![CDATA[drink]]></type>
  </wpt>
  <trk>
    <name><![CDATA[ShortCut 2]]></name>
    <desc><![CDATA[Distance: 21km
Elevation gain: 829m
Max altitude: 707m
Average speed: 9.5km/h
Points: 410]]></desc>
    <trkseg>
      <trkpt lat="43.66907" lon="3.40932">
        <ele>147</ele>
        <time>2024-05-15T12:46:52+00:00</time>
      </trkpt>
      <trkpt lat="43.66948" lon="3.40926">
        <ele>144</ele>
        <time>2024-05-15T12:47:09+00:00</time>
      </trkpt>
      <trkpt lat="43.66979" lon="3.40909">
        <ele>141</ele>
        <time>2024-05-15T12:47:23+00:00</time>
      </trkpt>
      <trkpt lat="43.67062" lon="3.40806">
        <ele>132</ele>
        <time>2024-05-15T12:48:09+00:00</time>
      </trkpt>
      <trkpt lat="43.67098" lon="3.40752">
        <ele>129</ele>
        <time>2024-05-15T12:48:31+00:00</time>
      </trkpt>
      <trkpt lat="43.67122" lon="3.40701">
        <ele>126</ele>
        <time>2024-05-15T12:48:49+00:00</time>
      </trkpt>
      <trkpt lat="43.67163" lon="3.40649">
        <ele>119</ele>
        <time>2024-05-15T12:49:12+00:00</time>
      </trkpt>
      <trkpt lat="43.67184" lon="3.40595">
        <ele>116</ele>
        <time>2024-05-15T12:49:31+00:00</time>
      </trkpt>
      <trkpt lat="43.67197" lon="3.40579">
        <ele>111</ele>
        <time>2024-05-15T12:49:39+00:00</time>
      </trkpt>
      <trkpt lat="43.67214" lon="3.4058">
        <ele>109</ele>
        <time>2024-05-15T12:49:46+00:00</time>
      </trkpt>
      <trkpt lat="43.67271" lon="3.40632">
        <ele>100</ele>
        <time>2024-05-15T12:50:14+00:00</time>
      </trkpt>
      <trkpt lat="43.67282" lon="3.40634">
        <ele>99</ele>
        <time>2024-05-15T12:50:19+00:00</time>
      </trkpt>
      <trkpt lat="43.67317" lon="3.40616">
        <ele>96</ele>
        <time>2024-05-15T12:50:35+00:00</time>
      </trkpt>
      <trkpt lat="43.67331" lon="3.40616">
        <ele>94</ele>
        <time>2024-05-15T12:50:41+00:00</time>
      </trkpt>
      <trkpt lat="43.67357" lon="3.40701">
        <ele>93</ele>
        <time>2024-05-15T12:51:09+00:00</time>
      </trkpt>
      <trkpt lat="43.67614" lon="3.40749">
        <ele>93</ele>
        <time>2024-05-15T12:52:55+00:00</time>
      </trkpt>
      <trkpt lat="43.67662" lon="3.40774">
        <ele>94</ele>
        <time>2024-05-15T12:53:17+00:00</time>
      </trkpt>
      <trkpt lat="43.67715" lon="3.40768">
        <ele>95</ele>
        <time>2024-05-15T12:53:39+00:00</time>
      </trkpt>
      <trkpt lat="43.67753" lon="3.40745">
        <ele>98</ele>
        <time>2024-05-15T12:53:57+00:00</time>
      </trkpt>
      <trkpt lat="43.67806" lon="3.40749">
        <ele>95</ele>
        <time>2024-05-15T12:54:19+00:00</time>
      </trkpt>
      <trkpt lat="43.67887" lon="3.40773">
        <ele>98</ele>
        <time>2024-05-15T12:54:53+00:00</time>
      </trkpt>
      <trkpt lat="43.67932" lon="3.4085">
        <ele>100</ele>
        <time>2024-05-15T12:55:23+00:00</time>
      </trkpt>
      <trkpt lat="43.68212" lon="3.41016">
        <ele>104</ele>
        <time>2024-05-15T12:57:27+00:00</time>
      </trkpt>
      <trkpt lat="43.68236" lon="3.41025">
        <ele>106</ele>
        <time>2024-05-15T12:57:38+00:00</time>
      </trkpt>
      <trkpt lat="43.68246" lon="3.4104">
        <ele>106</ele>
        <time>2024-05-15T12:57:45+00:00</time>
      </trkpt>
      <trkpt lat="43.68459" lon="3.41162">
        <ele>116</ele>
        <time>2024-05-15T12:59:19+00:00</time>
      </trkpt>
      <trkpt lat="43.68494" lon="3.41189">
        <ele>118</ele>
        <time>2024-05-15T12:59:36+00:00</time>
      </trkpt>
      <trkpt lat="43.68515" lon="3.4141">
        <ele>108</ele>
        <time>2024-05-15T13:00:42+00:00</time>
      </trkpt>
      <trkpt lat="43.68526" lon="3.41448">
        <ele>106</ele>
        <time>2024-05-15T13:00:54+00:00</time>
      </trkpt>
      <trkpt lat="43.68553" lon="3.41488">
        <ele>104</ele>
        <time>2024-05-15T13:01:10+00:00</time>
      </trkpt>
      <trkpt lat="43.68575" lon="3.41496">
        <ele>103</ele>
        <time>2024-05-15T13:01:20+00:00</time>
      </trkpt>
      <trkpt lat="43.68597" lon="3.41496">
        <ele>103</ele>
        <time>2024-05-15T13:01:30+00:00</time>
      </trkpt>
      <trkpt lat="43.68647" lon="3.41461">
        <ele>102</ele>
        <time>2024-05-15T13:01:53+00:00</time>
      </trkpt>
      <trkpt lat="43.68668" lon="3.41457">
        <ele>99</ele>
        <time>2024-05-15T13:02:02+00:00</time>
      </trkpt>
      <trkpt lat="43.6873" lon="3.41417">
        <ele>98</ele>
        <time>2024-05-15T13:02:30+00:00</time>
      </trkpt>
      <trkpt lat="43.68796" lon="3.41341">
        <ele>94</ele>
        <time>2024-05-15T13:03:05+00:00</time>
      </trkpt>
      <trkpt lat="43.68854" lon="3.4131">
        <ele>94</ele>
        <time>2024-05-15T13:03:31+00:00</time>
      </trkpt>
      <trkpt lat="43.68855" lon="3.41347">
        <ele>96</ele>
        <time>2024-05-15T13:03:42+00:00</time>
      </trkpt>
      <trkpt lat="43.68846" lon="3.41351">
        <ele>95</ele>
        <time>2024-05-15T13:03:46+00:00</time>
      </trkpt>
      <trkpt lat="43.68798" lon="3.41484">
        <ele>98</ele>
        <time>2024-05-15T13:04:30+00:00</time>
      </trkpt>
      <trkpt lat="43.68829" lon="3.41538">
        <ele>105</ele>
        <time>2024-05-15T13:04:51+00:00</time>
      </trkpt>
      <trkpt lat="43.68881" lon="3.41487">
        <ele>107</ele>
        <time>2024-05-15T13:05:17+00:00</time>
      </trkpt>
      <trkpt lat="43.68902" lon="3.41487">
        <ele>110</ele>
        <time>2024-05-15T13:05:26+00:00</time>
      </trkpt>
      <trkpt lat="43.68931" lon="3.41519">
        <ele>118</ele>
        <time>2024-05-15T13:05:42+00:00</time>
      </trkpt>
      <trkpt lat="43.68893" lon="3.41581">
        <ele>124</ele>
        <time>2024-05-15T13:06:06+00:00</time>
      </trkpt>
      <trkpt lat="43.68897" lon="3.416">
        <ele>126</ele>
        <time>2024-05-15T13:06:12+00:00</time>
      </trkpt>
      <trkpt lat="43.69106" lon="3.41666">
        <ele>157</ele>
        <time>2024-05-15T13:07:39+00:00</time>
      </trkpt>
      <trkpt lat="43.69212" lon="3.41851">
        <ele>158</ele>
        <time>2024-05-15T13:08:49+00:00</time>
      </trkpt>
      <trkpt lat="43.69237" lon="3.419">
        <ele>158</ele>
        <time>2024-05-15T13:09:07+00:00</time>
      </trkpt>
      <trkpt lat="43.69269" lon="3.41914">
        <ele>157</ele>
        <time>2024-05-15T13:09:21+00:00</time>
      </trkpt>
      <trkpt lat="43.69306" lon="3.41891">
        <ele>157</ele>
        <time>2024-05-15T13:09:38+00:00</time>
      </trkpt>
      <trkpt lat="43.69318" lon="3.41765">
        <ele>163</ele>
        <time>2024-05-15T13:10:16+00:00</time>
      </trkpt>
      <trkpt lat="43.69371" lon="3.41873">
        <ele>165</ele>
        <time>2024-05-15T13:10:55+00:00</time>
      </trkpt>
      <trkpt lat="43.69398" lon="3.41955">
        <ele>165</ele>
        <time>2024-05-15T13:11:22+00:00</time>
      </trkpt>
      <trkpt lat="43.69499" lon="3.41977">
        <ele>165</ele>
        <time>2024-05-15T13:12:04+00:00</time>
      </trkpt>
      <trkpt lat="43.69538" lon="3.42016">
        <ele>169</ele>
        <time>2024-05-15T13:12:24+00:00</time>
      </trkpt>
      <trkpt lat="43.69596" lon="3.42121">
        <ele>174</ele>
        <time>2024-05-15T13:13:03+00:00</time>
      </trkpt>
      <trkpt lat="43.69617" lon="3.42123">
        <ele>177</ele>
        <time>2024-05-15T13:13:12+00:00</time>
      </trkpt>
      <trkpt lat="43.69656" lon="3.42159">
        <ele>181</ele>
        <time>2024-05-15T13:13:32+00:00</time>
      </trkpt>
      <trkpt lat="43.69697" lon="3.42244">
        <ele>185</ele>
        <time>2024-05-15T13:14:03+00:00</time>
      </trkpt>
      <trkpt lat="43.69717" lon="3.42342">
        <ele>182</ele>
        <time>2024-05-15T13:14:33+00:00</time>
      </trkpt>
      <trkpt lat="43.69717" lon="3.42392">
        <ele>179</ele>
        <time>2024-05-15T13:14:48+00:00</time>
      </trkpt>
      <trkpt lat="43.6978" lon="3.42582">
        <ele>183</ele>
        <time>2024-05-15T13:15:50+00:00</time>
      </trkpt>
      <trkpt lat="43.69804" lon="3.42604">
        <ele>187</ele>
        <time>2024-05-15T13:16:02+00:00</time>
      </trkpt>
      <trkpt lat="43.69852" lon="3.42746">
        <ele>185</ele>
        <time>2024-05-15T13:16:49+00:00</time>
      </trkpt>
      <trkpt lat="43.69885" lon="3.42866">
        <ele>184</ele>
        <time>2024-05-15T13:17:27+00:00</time>
      </trkpt>
      <trkpt lat="43.6994" lon="3.42954">
        <ele>177</ele>
        <time>2024-05-15T13:18:02+00:00</time>
      </trkpt>
      <trkpt lat="43.69956" lon="3.43004">
        <ele>176</ele>
        <time>2024-05-15T13:18:18+00:00</time>
      </trkpt>
      <trkpt lat="43.69981" lon="3.43013">
        <ele>176</ele>
        <time>2024-05-15T13:18:29+00:00</time>
      </trkpt>
      <trkpt lat="43.70051" lon="3.43102">
        <ele>170</ele>
        <time>2024-05-15T13:19:08+00:00</time>
      </trkpt>
      <trkpt lat="43.7007" lon="3.43112">
        <ele>170</ele>
        <time>2024-05-15T13:19:17+00:00</time>
      </trkpt>
      <trkpt lat="43.70111" lon="3.43079">
        <ele>167</ele>
        <time>2024-05-15T13:19:37+00:00</time>
      </trkpt>
      <trkpt lat="43.70152" lon="3.43069">
        <ele>165</ele>
        <time>2024-05-15T13:19:55+00:00</time>
      </trkpt>
      <trkpt lat="43.70169" lon="3.4307">
        <ele>164</ele>
        <time>2024-05-15T13:20:02+00:00</time>
      </trkpt>
      <trkpt lat="43.70198" lon="3.43081">
        <ele>163</ele>
        <time>2024-05-15T13:20:15+00:00</time>
      </trkpt>
      <trkpt lat="43.70243" lon="3.43077">
        <ele>164</ele>
        <time>2024-05-15T13:20:34+00:00</time>
      </trkpt>
      <trkpt lat="43.70284" lon="3.43063">
        <ele>163</ele>
        <time>2024-05-15T13:20:52+00:00</time>
      </trkpt>
      <trkpt lat="43.70323" lon="3.43033">
        <ele>161</ele>
        <time>2024-05-15T13:21:11+00:00</time>
      </trkpt>
      <trkpt lat="43.70401" lon="3.42983">
        <ele>157</ele>
        <time>2024-05-15T13:21:46+00:00</time>
      </trkpt>
      <trkpt lat="43.70424" lon="3.42931">
        <ele>155</ele>
        <time>2024-05-15T13:22:05+00:00</time>
      </trkpt>
      <trkpt lat="43.70469" lon="3.42868">
        <ele>150</ele>
        <time>2024-05-15T13:22:32+00:00</time>
      </trkpt>
      <trkpt lat="43.70516" lon="3.42848">
        <ele>145</ele>
        <time>2024-05-15T13:22:52+00:00</time>
      </trkpt>
      <trkpt lat="43.7054" lon="3.42832">
        <ele>144</ele>
        <time>2024-05-15T13:23:03+00:00</time>
      </trkpt>
      <trkpt lat="43.70582" lon="3.42789">
        <ele>144</ele>
        <time>2024-05-15T13:23:25+00:00</time>
      </trkpt>
      <trkpt lat="43.70627" lon="3.42743">
        <ele>149</ele>
        <time>2024-05-15T13:23:48+00:00</time>
      </trkpt>
      <trkpt lat="43.70672" lon="3.42685">
        <ele>152</ele>
        <time>2024-05-15T13:24:14+00:00</time>
      </trkpt>
      <trkpt lat="43.70688" lon="3.42682">
        <ele>152</ele>
        <time>2024-05-15T13:24:21+00:00</time>
      </trkpt>
      <trkpt lat="43.7071" lon="3.42681">
        <ele>153</ele>
        <time>2024-05-15T13:24:31+00:00</time>
      </trkpt>
      <trkpt lat="43.70755" lon="3.42654">
        <ele>152</ele>
        <time>2024-05-15T13:24:51+00:00</time>
      </trkpt>
      <trkpt lat="43.70844" lon="3.42642">
        <ele>148</ele>
        <time>2024-05-15T13:25:28+00:00</time>
      </trkpt>
      <trkpt lat="43.70862" lon="3.4264">
        <ele>145</ele>
        <time>2024-05-15T13:25:36+00:00</time>
      </trkpt>
      <trkpt lat="43.70883" lon="3.42655">
        <ele>147</ele>
        <time>2024-05-15T13:25:46+00:00</time>
      </trkpt>
      <trkpt lat="43.70917" lon="3.42658">
        <ele>143</ele>
        <time>2024-05-15T13:26:00+00:00</time>
      </trkpt>
      <trkpt lat="43.7098" lon="3.42686">
        <ele>145</ele>
        <time>2024-05-15T13:26:27+00:00</time>
      </trkpt>
      <trkpt lat="43.71006" lon="3.42679">
        <ele>144</ele>
        <time>2024-05-15T13:26:38+00:00</time>
      </trkpt>
      <trkpt lat="43.71017" lon="3.42683">
        <ele>145</ele>
        <time>2024-05-15T13:26:43+00:00</time>
      </trkpt>
      <trkpt lat="43.71034" lon="3.42703">
        <ele>145</ele>
        <time>2024-05-15T13:26:53+00:00</time>
      </trkpt>
      <trkpt lat="43.71046" lon="3.427">
        <ele>146</ele>
        <time>2024-05-15T13:26:59+00:00</time>
      </trkpt>
      <trkpt lat="43.71086" lon="3.42671">
        <ele>149</ele>
        <time>2024-05-15T13:27:18+00:00</time>
      </trkpt>
      <trkpt lat="43.71099" lon="3.42669">
        <ele>150</ele>
        <time>2024-05-15T13:27:24+00:00</time>
      </trkpt>
      <trkpt lat="43.71116" lon="3.42673">
        <ele>152</ele>
        <time>2024-05-15T13:27:32+00:00</time>
      </trkpt>
      <trkpt lat="43.71186" lon="3.42718">
        <ele>158</ele>
        <time>2024-05-15T13:28:04+00:00</time>
      </trkpt>
      <trkpt lat="43.71307" lon="3.4272">
        <ele>161</ele>
        <time>2024-05-15T13:28:54+00:00</time>
      </trkpt>
      <trkpt lat="43.71329" lon="3.42725">
        <ele>161</ele>
        <time>2024-05-15T13:29:04+00:00</time>
      </trkpt>
      <trkpt lat="43.71346" lon="3.42744">
        <ele>162</ele>
        <time>2024-05-15T13:29:14+00:00</time>
      </trkpt>
      <trkpt lat="43.71371" lon="3.42816">
        <ele>165</ele>
        <time>2024-05-15T13:29:38+00:00</time>
      </trkpt>
      <trkpt lat="43.71377" lon="3.42844">
        <ele>165</ele>
        <time>2024-05-15T13:29:47+00:00</time>
      </trkpt>
      <trkpt lat="43.71383" lon="3.42876">
        <ele>164</ele>
        <time>2024-05-15T13:29:57+00:00</time>
      </trkpt>
      <trkpt lat="43.71411" lon="3.42949">
        <ele>168</ele>
        <time>2024-05-15T13:30:22+00:00</time>
      </trkpt>
      <trkpt lat="43.71421" lon="3.42993">
        <ele>169</ele>
        <time>2024-05-15T13:30:36+00:00</time>
      </trkpt>
      <trkpt lat="43.71425" lon="3.43046">
        <ele>170</ele>
        <time>2024-05-15T13:30:52+00:00</time>
      </trkpt>
      <trkpt lat="43.71421" lon="3.4307">
        <ele>171</ele>
        <time>2024-05-15T13:31:00+00:00</time>
      </trkpt>
      <trkpt lat="43.71422" lon="3.4309">
        <ele>170</ele>
        <time>2024-05-15T13:31:07+00:00</time>
      </trkpt>
      <trkpt lat="43.71418" lon="3.4314">
        <ele>170</ele>
        <time>2024-05-15T13:31:22+00:00</time>
      </trkpt>
      <trkpt lat="43.71427" lon="3.43152">
        <ele>170</ele>
        <time>2024-05-15T13:31:28+00:00</time>
      </trkpt>
      <trkpt lat="43.71455" lon="3.43152">
        <ele>170</ele>
        <time>2024-05-15T13:31:40+00:00</time>
      </trkpt>
      <trkpt lat="43.71488" lon="3.43148">
        <ele>173</ele>
        <time>2024-05-15T13:31:54+00:00</time>
      </trkpt>
      <trkpt lat="43.71498" lon="3.43138">
        <ele>173</ele>
        <time>2024-05-15T13:32:00+00:00</time>
      </trkpt>
      <trkpt lat="43.71504" lon="3.43098">
        <ele>174</ele>
        <time>2024-05-15T13:32:12+00:00</time>
      </trkpt>
      <trkpt lat="43.7152" lon="3.43069">
        <ele>176</ele>
        <time>2024-05-15T13:32:23+00:00</time>
      </trkpt>
      <trkpt lat="43.71536" lon="3.43062">
        <ele>178</ele>
        <time>2024-05-15T13:32:30+00:00</time>
      </trkpt>
      <trkpt lat="43.71549" lon="3.43066">
        <ele>179</ele>
        <time>2024-05-15T13:32:36+00:00</time>
      </trkpt>
      <trkpt lat="43.7158" lon="3.43085">
        <ele>182</ele>
        <time>2024-05-15T13:32:50+00:00</time>
      </trkpt>
      <trkpt lat="43.71616" lon="3.43118">
        <ele>184</ele>
        <time>2024-05-15T13:33:08+00:00</time>
      </trkpt>
      <trkpt lat="43.71651" lon="3.43166">
        <ele>186</ele>
        <time>2024-05-15T13:33:28+00:00</time>
      </trkpt>
      <trkpt lat="43.71625" lon="3.43194">
        <ele>187</ele>
        <time>2024-05-15T13:33:42+00:00</time>
      </trkpt>
      <trkpt lat="43.71611" lon="3.43215">
        <ele>188</ele>
        <time>2024-05-15T13:33:51+00:00</time>
      </trkpt>
      <trkpt lat="43.71597" lon="3.43241">
        <ele>189</ele>
        <time>2024-05-15T13:34:01+00:00</time>
      </trkpt>
      <trkpt lat="43.71593" lon="3.43257">
        <ele>190</ele>
        <time>2024-05-15T13:34:07+00:00</time>
      </trkpt>
      <trkpt lat="43.71591" lon="3.43283">
        <ele>192</ele>
        <time>2024-05-15T13:34:15+00:00</time>
      </trkpt>
      <trkpt lat="43.71584" lon="3.43306">
        <ele>193</ele>
        <time>2024-05-15T13:34:23+00:00</time>
      </trkpt>
      <trkpt lat="43.71593" lon="3.43321">
        <ele>194</ele>
        <time>2024-05-15T13:34:29+00:00</time>
      </trkpt>
      <trkpt lat="43.71619" lon="3.43346">
        <ele>196</ele>
        <time>2024-05-15T13:34:43+00:00</time>
      </trkpt>
      <trkpt lat="43.71621" lon="3.43364">
        <ele>197</ele>
        <time>2024-05-15T13:34:49+00:00</time>
      </trkpt>
      <trkpt lat="43.71615" lon="3.43379">
        <ele>198</ele>
        <time>2024-05-15T13:34:55+00:00</time>
      </trkpt>
      <trkpt lat="43.7162" lon="3.43391">
        <ele>198</ele>
        <time>2024-05-15T13:35:00+00:00</time>
      </trkpt>
      <trkpt lat="43.71632" lon="3.43406">
        <ele>199</ele>
        <time>2024-05-15T13:35:07+00:00</time>
      </trkpt>
      <trkpt lat="43.71685" lon="3.43457">
        <ele>202</ele>
        <time>2024-05-15T13:35:34+00:00</time>
      </trkpt>
      <trkpt lat="43.71687" lon="3.43478">
        <ele>204</ele>
        <time>2024-05-15T13:35:41+00:00</time>
      </trkpt>
      <trkpt lat="43.71685" lon="3.43531">
        <ele>205</ele>
        <time>2024-05-15T13:35:57+00:00</time>
      </trkpt>
      <trkpt lat="43.71713" lon="3.43608">
        <ele>206</ele>
        <time>2024-05-15T13:36:23+00:00</time>
      </trkpt>
      <trkpt lat="43.71745" lon="3.43651">
        <ele>209</ele>
        <time>2024-05-15T13:36:42+00:00</time>
      </trkpt>
      <trkpt lat="43.71755" lon="3.43731">
        <ele>214</ele>
        <time>2024-05-15T13:37:06+00:00</time>
      </trkpt>
      <trkpt lat="43.71763" lon="3.43746">
        <ele>217</ele>
        <time>2024-05-15T13:37:12+00:00</time>
      </trkpt>
      <trkpt lat="43.71848" lon="3.43765">
        <ele>224</ele>
        <time>2024-05-15T13:37:47+00:00</time>
      </trkpt>
      <trkpt lat="43.71862" lon="3.4378">
        <ele>226</ele>
        <time>2024-05-15T13:37:55+00:00</time>
      </trkpt>
      <trkpt lat="43.71874" lon="3.43786">
        <ele>228</ele>
        <time>2024-05-15T13:38:01+00:00</time>
      </trkpt>
      <trkpt lat="43.71889" lon="3.43779">
        <ele>228</ele>
        <time>2024-05-15T13:38:08+00:00</time>
      </trkpt>
      <trkpt lat="43.71902" lon="3.43767">
        <ele>229</ele>
        <time>2024-05-15T13:38:15+00:00</time>
      </trkpt>
      <trkpt lat="43.71924" lon="3.4376">
        <ele>230</ele>
        <time>2024-05-15T13:38:25+00:00</time>
      </trkpt>
      <trkpt lat="43.7193" lon="3.43765">
        <ele>230</ele>
        <time>2024-05-15T13:38:28+00:00</time>
      </trkpt>
      <trkpt lat="43.71928" lon="3.43782">
        <ele>232</ele>
        <time>2024-05-15T13:38:34+00:00</time>
      </trkpt>
      <trkpt lat="43.71816" lon="3.43844">
        <ele>234</ele>
        <time>2024-05-15T13:39:24+00:00</time>
      </trkpt>
      <trkpt lat="43.71813" lon="3.43859">
        <ele>236</ele>
        <time>2024-05-15T13:39:29+00:00</time>
      </trkpt>
      <trkpt lat="43.71825" lon="3.43913">
        <ele>241</ele>
        <time>2024-05-15T13:39:46+00:00</time>
      </trkpt>
      <trkpt lat="43.71843" lon="3.43932">
        <ele>242</ele>
        <time>2024-05-15T13:39:56+00:00</time>
      </trkpt>
      <trkpt lat="43.71839" lon="3.43943">
        <ele>241</ele>
        <time>2024-05-15T13:40:00+00:00</time>
      </trkpt>
      <trkpt lat="43.71812" lon="3.4396">
        <ele>240</ele>
        <time>2024-05-15T13:40:12+00:00</time>
      </trkpt>
      <trkpt lat="43.71798" lon="3.43991">
        <ele>239</ele>
        <time>2024-05-15T13:40:23+00:00</time>
      </trkpt>
      <trkpt lat="43.7177" lon="3.44032">
        <ele>237</ele>
        <time>2024-05-15T13:40:40+00:00</time>
      </trkpt>
      <trkpt lat="43.7176" lon="3.44027">
        <ele>236</ele>
        <time>2024-05-15T13:40:45+00:00</time>
      </trkpt>
      <trkpt lat="43.71742" lon="3.44019">
        <ele>235</ele>
        <time>2024-05-15T13:40:53+00:00</time>
      </trkpt>
      <trkpt lat="43.71737" lon="3.44025">
        <ele>236</ele>
        <time>2024-05-15T13:40:56+00:00</time>
      </trkpt>
      <trkpt lat="43.71749" lon="3.44041">
        <ele>239</ele>
        <time>2024-05-15T13:41:03+00:00</time>
      </trkpt>
      <trkpt lat="43.71758" lon="3.44049">
        <ele>240</ele>
        <time>2024-05-15T13:41:08+00:00</time>
      </trkpt>
      <trkpt lat="43.71781" lon="3.44056">
        <ele>240</ele>
        <time>2024-05-15T13:41:18+00:00</time>
      </trkpt>
      <trkpt lat="43.71789" lon="3.44068">
        <ele>244</ele>
        <time>2024-05-15T13:41:24+00:00</time>
      </trkpt>
      <trkpt lat="43.71785" lon="3.44075">
        <ele>245</ele>
        <time>2024-05-15T13:41:27+00:00</time>
      </trkpt>
      <trkpt lat="43.71751" lon="3.44084">
        <ele>246</ele>
        <time>2024-05-15T13:41:42+00:00</time>
      </trkpt>
      <trkpt lat="43.71724" lon="3.44101">
        <ele>250</ele>
        <time>2024-05-15T13:41:54+00:00</time>
      </trkpt>
      <trkpt lat="43.71698" lon="3.44108">
        <ele>250</ele>
        <time>2024-05-15T13:42:05+00:00</time>
      </trkpt>
      <trkpt lat="43.71675" lon="3.44128">
        <ele>252</ele>
        <time>2024-05-15T13:42:17+00:00</time>
      </trkpt>
      <trkpt lat="43.71645" lon="3.44139">
        <ele>251</ele>
        <time>2024-05-15T13:42:30+00:00</time>
      </trkpt>
      <trkpt lat="43.7165" lon="3.44151">
        <ele>252</ele>
        <time>2024-05-15T13:42:35+00:00</time>
      </trkpt>
      <trkpt lat="43.71704" lon="3.44144">
        <ele>258</ele>
        <time>2024-05-15T13:42:58+00:00</time>
      </trkpt>
      <trkpt lat="43.71765" lon="3.44151">
        <ele>263</ele>
        <time>2024-05-15T13:43:24+00:00</time>
      </trkpt>
      <trkpt lat="43.71778" lon="3.44157">
        <ele>264</ele>
        <time>2024-05-15T13:43:30+00:00</time>
      </trkpt>
      <trkpt lat="43.718" lon="3.44207">
        <ele>271</ele>
        <time>2024-05-15T13:43:48+00:00</time>
      </trkpt>
      <trkpt lat="43.71811" lon="3.4421">
        <ele>272</ele>
        <time>2024-05-15T13:43:53+00:00</time>
      </trkpt>
      <trkpt lat="43.71833" lon="3.44166">
        <ele>268</ele>
        <time>2024-05-15T13:44:09+00:00</time>
      </trkpt>
      <trkpt lat="43.71902" lon="3.44142">
        <ele>275</ele>
        <time>2024-05-15T13:44:39+00:00</time>
      </trkpt>
      <trkpt lat="43.71905" lon="3.44154">
        <ele>278</ele>
        <time>2024-05-15T13:44:43+00:00</time>
      </trkpt>
      <trkpt lat="43.71884" lon="3.44163">
        <ele>278</ele>
        <time>2024-05-15T13:44:53+00:00</time>
      </trkpt>
      <trkpt lat="43.71856" lon="3.44197">
        <ele>279</ele>
        <time>2024-05-15T13:45:09+00:00</time>
      </trkpt>
      <trkpt lat="43.71821" lon="3.44265">
        <ele>286</ele>
        <time>2024-05-15T13:45:34+00:00</time>
      </trkpt>
      <trkpt lat="43.71802" lon="3.44272">
        <ele>287</ele>
        <time>2024-05-15T13:45:42+00:00</time>
      </trkpt>
      <trkpt lat="43.71755" lon="3.44272">
        <ele>287</ele>
        <time>2024-05-15T13:46:02+00:00</time>
      </trkpt>
      <trkpt lat="43.71712" lon="3.44347">
        <ele>291</ele>
        <time>2024-05-15T13:46:30+00:00</time>
      </trkpt>
      <trkpt lat="43.71703" lon="3.44393">
        <ele>295</ele>
        <time>2024-05-15T13:46:45+00:00</time>
      </trkpt>
      <trkpt lat="43.71685" lon="3.44426">
        <ele>297</ele>
        <time>2024-05-15T13:46:58+00:00</time>
      </trkpt>
      <trkpt lat="43.71738" lon="3.44385">
        <ele>302</ele>
        <time>2024-05-15T13:47:23+00:00</time>
      </trkpt>
      <trkpt lat="43.71753" lon="3.44384">
        <ele>304</ele>
        <time>2024-05-15T13:47:30+00:00</time>
      </trkpt>
      <trkpt lat="43.71772" lon="3.44368">
        <ele>304</ele>
        <time>2024-05-15T13:47:40+00:00</time>
      </trkpt>
      <trkpt lat="43.71817" lon="3.44352">
        <ele>306</ele>
        <time>2024-05-15T13:47:59+00:00</time>
      </trkpt>
      <trkpt lat="43.71836" lon="3.44353">
        <ele>309</ele>
        <time>2024-05-15T13:48:07+00:00</time>
      </trkpt>
      <trkpt lat="43.71862" lon="3.44332">
        <ele>309</ele>
        <time>2024-05-15T13:48:20+00:00</time>
      </trkpt>
      <trkpt lat="43.71888" lon="3.44319">
        <ele>311</ele>
        <time>2024-05-15T13:48:32+00:00</time>
      </trkpt>
      <trkpt lat="43.71949" lon="3.44314">
        <ele>317</ele>
        <time>2024-05-15T13:48:57+00:00</time>
      </trkpt>
      <trkpt lat="43.71991" lon="3.44333">
        <ele>322</ele>
        <time>2024-05-15T13:49:16+00:00</time>
      </trkpt>
      <trkpt lat="43.72007" lon="3.44327">
        <ele>322</ele>
        <time>2024-05-15T13:49:23+00:00</time>
      </trkpt>
      <trkpt lat="43.72024" lon="3.4431">
        <ele>322</ele>
        <time>2024-05-15T13:49:32+00:00</time>
      </trkpt>
      <trkpt lat="43.72074" lon="3.44288">
        <ele>326</ele>
        <time>2024-05-15T13:49:54+00:00</time>
      </trkpt>
      <trkpt lat="43.72157" lon="3.44189">
        <ele>332</ele>
        <time>2024-05-15T13:50:39+00:00</time>
      </trkpt>
      <trkpt lat="43.72211" lon="3.4416">
        <ele>337</ele>
        <time>2024-05-15T13:51:03+00:00</time>
      </trkpt>
      <trkpt lat="43.72217" lon="3.44162">
        <ele>339</ele>
        <time>2024-05-15T13:51:06+00:00</time>
      </trkpt>
      <trkpt lat="43.72197" lon="3.44213">
        <ele>344</ele>
        <time>2024-05-15T13:51:24+00:00</time>
      </trkpt>
      <trkpt lat="43.72173" lon="3.44238">
        <ele>344</ele>
        <time>2024-05-15T13:51:37+00:00</time>
      </trkpt>
      <trkpt lat="43.72114" lon="3.4438">
        <ele>357</ele>
        <time>2024-05-15T13:52:25+00:00</time>
      </trkpt>
      <trkpt lat="43.72062" lon="3.44453">
        <ele>360</ele>
        <time>2024-05-15T13:52:56+00:00</time>
      </trkpt>
      <trkpt lat="43.7201" lon="3.44484">
        <ele>367</ele>
        <time>2024-05-15T13:53:19+00:00</time>
      </trkpt>
      <trkpt lat="43.71994" lon="3.44483">
        <ele>368</ele>
        <time>2024-05-15T13:53:26+00:00</time>
      </trkpt>
      <trkpt lat="43.71949" lon="3.44458">
        <ele>367</ele>
        <time>2024-05-15T13:53:46+00:00</time>
      </trkpt>
      <trkpt lat="43.71936" lon="3.44463">
        <ele>367</ele>
        <time>2024-05-15T13:53:52+00:00</time>
      </trkpt>
      <trkpt lat="43.71905" lon="3.44494">
        <ele>368</ele>
        <time>2024-05-15T13:54:08+00:00</time>
      </trkpt>
      <trkpt lat="43.71868" lon="3.44513">
        <ele>367</ele>
        <time>2024-05-15T13:54:24+00:00</time>
      </trkpt>
      <trkpt lat="43.71837" lon="3.4456">
        <ele>371</ele>
        <time>2024-05-15T13:54:43+00:00</time>
      </trkpt>
      <trkpt lat="43.71825" lon="3.44591">
        <ele>371</ele>
        <time>2024-05-15T13:54:54+00:00</time>
      </trkpt>
      <trkpt lat="43.71831" lon="3.446">
        <ele>373</ele>
        <time>2024-05-15T13:54:58+00:00</time>
      </trkpt>
      <trkpt lat="43.71843" lon="3.44575">
        <ele>374</ele>
        <time>2024-05-15T13:55:08+00:00</time>
      </trkpt>
      <trkpt lat="43.71869" lon="3.44549">
        <ele>376</ele>
        <time>2024-05-15T13:55:22+00:00</time>
      </trkpt>
      <trkpt lat="43.71917" lon="3.44528">
        <ele>380</ele>
        <time>2024-05-15T13:55:43+00:00</time>
      </trkpt>
      <trkpt lat="43.71944" lon="3.4453">
        <ele>382</ele>
        <time>2024-05-15T13:55:55+00:00</time>
      </trkpt>
      <trkpt lat="43.71977" lon="3.44549">
        <ele>385</ele>
        <time>2024-05-15T13:56:10+00:00</time>
      </trkpt>
      <trkpt lat="43.72024" lon="3.44565">
        <ele>387</ele>
        <time>2024-05-15T13:56:30+00:00</time>
      </trkpt>
      <trkpt lat="43.72068" lon="3.44559">
        <ele>390</ele>
        <time>2024-05-15T13:56:49+00:00</time>
      </trkpt>
      <trkpt lat="43.72106" lon="3.44535">
        <ele>394</ele>
        <time>2024-05-15T13:57:07+00:00</time>
      </trkpt>
      <trkpt lat="43.72128" lon="3.44512">
        <ele>395</ele>
        <time>2024-05-15T13:57:19+00:00</time>
      </trkpt>
      <trkpt lat="43.72156" lon="3.44457">
        <ele>392</ele>
        <time>2024-05-15T13:57:39+00:00</time>
      </trkpt>
      <trkpt lat="43.72164" lon="3.44415">
        <ele>388</ele>
        <time>2024-05-15T13:57:52+00:00</time>
      </trkpt>
      <trkpt lat="43.72178" lon="3.44382">
        <ele>387</ele>
        <time>2024-05-15T13:58:04+00:00</time>
      </trkpt>
      <trkpt lat="43.722" lon="3.44365">
        <ele>388</ele>
        <time>2024-05-15T13:58:15+00:00</time>
      </trkpt>
      <trkpt lat="43.7223" lon="3.44361">
        <ele>390</ele>
        <time>2024-05-15T13:58:28+00:00</time>
      </trkpt>
      <trkpt lat="43.72291" lon="3.44316">
        <ele>389</ele>
        <time>2024-05-15T13:58:56+00:00</time>
      </trkpt>
      <trkpt lat="43.72333" lon="3.44253">
        <ele>389</ele>
        <time>2024-05-15T13:59:22+00:00</time>
      </trkpt>
      <trkpt lat="43.72352" lon="3.44253">
        <ele>389</ele>
        <time>2024-05-15T13:59:30+00:00</time>
      </trkpt>
      <trkpt lat="43.72424" lon="3.44322">
        <ele>388</ele>
        <time>2024-05-15T14:00:06+00:00</time>
      </trkpt>
      <trkpt lat="43.72472" lon="3.44389">
        <ele>389</ele>
        <time>2024-05-15T14:00:34+00:00</time>
      </trkpt>
      <trkpt lat="43.72539" lon="3.44379">
        <ele>385</ele>
        <time>2024-05-15T14:01:02+00:00</time>
      </trkpt>
      <trkpt lat="43.72568" lon="3.44389">
        <ele>385</ele>
        <time>2024-05-15T14:01:15+00:00</time>
      </trkpt>
      <trkpt lat="43.7261" lon="3.44417">
        <ele>383</ele>
        <time>2024-05-15T14:01:34+00:00</time>
      </trkpt>
      <trkpt lat="43.72661" lon="3.44425">
        <ele>380</ele>
        <time>2024-05-15T14:01:56+00:00</time>
      </trkpt>
      <trkpt lat="43.72711" lon="3.44463">
        <ele>381</ele>
        <time>2024-05-15T14:02:20+00:00</time>
      </trkpt>
      <trkpt lat="43.72756" lon="3.44466">
        <ele>379</ele>
        <time>2024-05-15T14:02:39+00:00</time>
      </trkpt>
      <trkpt lat="43.72844" lon="3.44409">
        <ele>381</ele>
        <time>2024-05-15T14:03:19+00:00</time>
      </trkpt>
      <trkpt lat="43.72909" lon="3.44354">
        <ele>382</ele>
        <time>2024-05-15T14:03:50+00:00</time>
      </trkpt>
      <trkpt lat="43.72928" lon="3.44329">
        <ele>380</ele>
        <time>2024-05-15T14:04:01+00:00</time>
      </trkpt>
      <trkpt lat="43.7297" lon="3.44242">
        <ele>379</ele>
        <time>2024-05-15T14:04:32+00:00</time>
      </trkpt>
      <trkpt lat="43.73006" lon="3.44219">
        <ele>379</ele>
        <time>2024-05-15T14:04:49+00:00</time>
      </trkpt>
      <trkpt lat="43.73031" lon="3.4422">
        <ele>380</ele>
        <time>2024-05-15T14:05:00+00:00</time>
      </trkpt>
      <trkpt lat="43.73078" lon="3.44236">
        <ele>382</ele>
        <time>2024-05-15T14:05:20+00:00</time>
      </trkpt>
      <trkpt lat="43.73165" lon="3.44342">
        <ele>387</ele>
        <time>2024-05-15T14:06:07+00:00</time>
      </trkpt>
      <trkpt lat="43.73218" lon="3.44394">
        <ele>386</ele>
        <time>2024-05-15T14:06:34+00:00</time>
      </trkpt>
      <trkpt lat="43.73264" lon="3.44467">
        <ele>383</ele>
        <time>2024-05-15T14:07:03+00:00</time>
      </trkpt>
      <trkpt lat="43.73331" lon="3.44544">
        <ele>377</ele>
        <time>2024-05-15T14:07:39+00:00</time>
      </trkpt>
      <trkpt lat="43.73363" lon="3.44557">
        <ele>377</ele>
        <time>2024-05-15T14:07:53+00:00</time>
      </trkpt>
      <trkpt lat="43.73418" lon="3.44553">
        <ele>382</ele>
        <time>2024-05-15T14:08:16+00:00</time>
      </trkpt>
      <trkpt lat="43.73424" lon="3.44557">
        <ele>381</ele>
        <time>2024-05-15T14:08:19+00:00</time>
      </trkpt>
      <trkpt lat="43.7343" lon="3.4465">
        <ele>393</ele>
        <time>2024-05-15T14:08:47+00:00</time>
      </trkpt>
      <trkpt lat="43.73469" lon="3.44675">
        <ele>393</ele>
        <time>2024-05-15T14:09:05+00:00</time>
      </trkpt>
      <trkpt lat="43.7348" lon="3.44675">
        <ele>391</ele>
        <time>2024-05-15T14:09:10+00:00</time>
      </trkpt>
      <trkpt lat="43.73523" lon="3.44639">
        <ele>392</ele>
        <time>2024-05-15T14:09:31+00:00</time>
      </trkpt>
      <trkpt lat="43.73581" lon="3.4463">
        <ele>390</ele>
        <time>2024-05-15T14:09:55+00:00</time>
      </trkpt>
      <trkpt lat="43.73613" lon="3.44614">
        <ele>389</ele>
        <time>2024-05-15T14:10:09+00:00</time>
      </trkpt>
      <trkpt lat="43.73649" lon="3.44627">
        <ele>392</ele>
        <time>2024-05-15T14:10:25+00:00</time>
      </trkpt>
      <trkpt lat="43.73666" lon="3.44625">
        <ele>393</ele>
        <time>2024-05-15T14:10:32+00:00</time>
      </trkpt>
      <trkpt lat="43.73682" lon="3.44623">
        <ele>394</ele>
        <time>2024-05-15T14:10:39+00:00</time>
      </trkpt>
      <trkpt lat="43.73698" lon="3.44608">
        <ele>393</ele>
        <time>2024-05-15T14:10:47+00:00</time>
      </trkpt>
      <trkpt lat="43.73717" lon="3.44605">
        <ele>393</ele>
        <time>2024-05-15T14:10:55+00:00</time>
      </trkpt>
      <trkpt lat="43.73739" lon="3.44615">
        <ele>396</ele>
        <time>2024-05-15T14:11:05+00:00</time>
      </trkpt>
      <trkpt lat="43.73814" lon="3.44591">
        <ele>396</ele>
        <time>2024-05-15T14:11:37+00:00</time>
      </trkpt>
      <trkpt lat="43.73861" lon="3.44591">
        <ele>395</ele>
        <time>2024-05-15T14:11:57+00:00</time>
      </trkpt>
      <trkpt lat="43.74028" lon="3.44633">
        <ele>389</ele>
        <time>2024-05-15T14:13:06+00:00</time>
      </trkpt>
      <trkpt lat="43.74062" lon="3.44658">
        <ele>387</ele>
        <time>2024-05-15T14:13:22+00:00</time>
      </trkpt>
      <trkpt lat="43.74082" lon="3.44663">
        <ele>384</ele>
        <time>2024-05-15T14:13:31+00:00</time>
      </trkpt>
      <trkpt lat="43.7411" lon="3.44658">
        <ele>383</ele>
        <time>2024-05-15T14:13:43+00:00</time>
      </trkpt>
      <trkpt lat="43.74138" lon="3.44662">
        <ele>381</ele>
        <time>2024-05-15T14:13:55+00:00</time>
      </trkpt>
      <trkpt lat="43.74171" lon="3.4469">
        <ele>385</ele>
        <time>2024-05-15T14:14:11+00:00</time>
      </trkpt>
      <trkpt lat="43.74185" lon="3.44711">
        <ele>389</ele>
        <time>2024-05-15T14:14:20+00:00</time>
      </trkpt>
      <trkpt lat="43.74188" lon="3.44729">
        <ele>392</ele>
        <time>2024-05-15T14:14:26+00:00</time>
      </trkpt>
      <trkpt lat="43.742" lon="3.4474">
        <ele>393</ele>
        <time>2024-05-15T14:14:33+00:00</time>
      </trkpt>
      <trkpt lat="43.74253" lon="3.44761">
        <ele>403</ele>
        <time>2024-05-15T14:14:56+00:00</time>
      </trkpt>
      <trkpt lat="43.74319" lon="3.44855">
        <ele>419</ele>
        <time>2024-05-15T14:15:35+00:00</time>
      </trkpt>
      <trkpt lat="43.74314" lon="3.44865">
        <ele>422</ele>
        <time>2024-05-15T14:15:39+00:00</time>
      </trkpt>
      <trkpt lat="43.74303" lon="3.4485">
        <ele>421</ele>
        <time>2024-05-15T14:15:46+00:00</time>
      </trkpt>
      <trkpt lat="43.74298" lon="3.44855">
        <ele>423</ele>
        <time>2024-05-15T14:15:49+00:00</time>
      </trkpt>
      <trkpt lat="43.74327" lon="3.44916">
        <ele>427</ele>
        <time>2024-05-15T14:16:11+00:00</time>
      </trkpt>
      <trkpt lat="43.74355" lon="3.44949">
        <ele>431</ele>
        <time>2024-05-15T14:16:26+00:00</time>
      </trkpt>
      <trkpt lat="43.74348" lon="3.44951">
        <ele>432</ele>
        <time>2024-05-15T14:16:29+00:00</time>
      </trkpt>
      <trkpt lat="43.74283" lon="3.44894">
        <ele>437</ele>
        <time>2024-05-15T14:17:01+00:00</time>
      </trkpt>
      <trkpt lat="43.74271" lon="3.44899">
        <ele>439</ele>
        <time>2024-05-15T14:17:07+00:00</time>
      </trkpt>
      <trkpt lat="43.74276" lon="3.44913">
        <ele>442</ele>
        <time>2024-05-15T14:17:12+00:00</time>
      </trkpt>
      <trkpt lat="43.74309" lon="3.44945">
        <ele>441</ele>
        <time>2024-05-15T14:17:29+00:00</time>
      </trkpt>
      <trkpt lat="43.7438" lon="3.45071">
        <ele>461</ele>
        <time>2024-05-15T14:18:16+00:00</time>
      </trkpt>
      <trkpt lat="43.74418" lon="3.45074">
        <ele>454</ele>
        <time>2024-05-15T14:18:32+00:00</time>
      </trkpt>
      <trkpt lat="43.74426" lon="3.4507">
        <ele>455</ele>
        <time>2024-05-15T14:18:36+00:00</time>
      </trkpt>
      <trkpt lat="43.74428" lon="3.4506">
        <ele>454</ele>
        <time>2024-05-15T14:18:40+00:00</time>
      </trkpt>
      <trkpt lat="43.74414" lon="3.45025">
        <ele>452</ele>
        <time>2024-05-15T14:18:52+00:00</time>
      </trkpt>
      <trkpt lat="43.74407" lon="3.44917">
        <ele>452</ele>
        <time>2024-05-15T14:19:24+00:00</time>
      </trkpt>
      <trkpt lat="43.74412" lon="3.4482">
        <ele>461</ele>
        <time>2024-05-15T14:19:53+00:00</time>
      </trkpt>
      <trkpt lat="43.74399" lon="3.44775">
        <ele>461</ele>
        <time>2024-05-15T14:20:08+00:00</time>
      </trkpt>
      <trkpt lat="43.74388" lon="3.44694">
        <ele>466</ele>
        <time>2024-05-15T14:20:33+00:00</time>
      </trkpt>
      <trkpt lat="43.74388" lon="3.44648">
        <ele>467</ele>
        <time>2024-05-15T14:20:47+00:00</time>
      </trkpt>
      <trkpt lat="43.74377" lon="3.44591">
        <ele>469</ele>
        <time>2024-05-15T14:21:05+00:00</time>
      </trkpt>
      <trkpt lat="43.74376" lon="3.44491">
        <ele>471</ele>
        <time>2024-05-15T14:21:35+00:00</time>
      </trkpt>
      <trkpt lat="43.74382" lon="3.44479">
        <ele>473</ele>
        <time>2024-05-15T14:21:40+00:00</time>
      </trkpt>
      <trkpt lat="43.7439" lon="3.44483">
        <ele>476</ele>
        <time>2024-05-15T14:21:44+00:00</time>
      </trkpt>
      <trkpt lat="43.744" lon="3.44608">
        <ele>476</ele>
        <time>2024-05-15T14:22:22+00:00</time>
      </trkpt>
      <trkpt lat="43.74437" lon="3.44677">
        <ele>483</ele>
        <time>2024-05-15T14:22:48+00:00</time>
      </trkpt>
      <trkpt lat="43.74479" lon="3.44923">
        <ele>492</ele>
        <time>2024-05-15T14:24:03+00:00</time>
      </trkpt>
      <trkpt lat="43.74497" lon="3.4497">
        <ele>493</ele>
        <time>2024-05-15T14:24:19+00:00</time>
      </trkpt>
      <trkpt lat="43.7456" lon="3.45037">
        <ele>499</ele>
        <time>2024-05-15T14:24:52+00:00</time>
      </trkpt>
      <trkpt lat="43.74584" lon="3.45053">
        <ele>504</ele>
        <time>2024-05-15T14:25:03+00:00</time>
      </trkpt>
      <trkpt lat="43.74587" lon="3.45073">
        <ele>505</ele>
        <time>2024-05-15T14:25:10+00:00</time>
      </trkpt>
      <trkpt lat="43.74577" lon="3.45097">
        <ele>502</ele>
        <time>2024-05-15T14:25:19+00:00</time>
      </trkpt>
      <trkpt lat="43.74589" lon="3.45129">
        <ele>505</ele>
        <time>2024-05-15T14:25:30+00:00</time>
      </trkpt>
      <trkpt lat="43.74576" lon="3.45192">
        <ele>504</ele>
        <time>2024-05-15T14:25:50+00:00</time>
      </trkpt>
      <trkpt lat="43.74589" lon="3.45253">
        <ele>510</ele>
        <time>2024-05-15T14:26:09+00:00</time>
      </trkpt>
      <trkpt lat="43.74626" lon="3.45306">
        <ele>516</ele>
        <time>2024-05-15T14:26:31+00:00</time>
      </trkpt>
      <trkpt lat="43.74631" lon="3.45332">
        <ele>515</ele>
        <time>2024-05-15T14:26:39+00:00</time>
      </trkpt>
      <trkpt lat="43.74624" lon="3.45344">
        <ele>518</ele>
        <time>2024-05-15T14:26:44+00:00</time>
      </trkpt>
      <trkpt lat="43.74603" lon="3.45327">
        <ele>516</ele>
        <time>2024-05-15T14:26:55+00:00</time>
      </trkpt>
      <trkpt lat="43.74571" lon="3.45321">
        <ele>516</ele>
        <time>2024-05-15T14:27:09+00:00</time>
      </trkpt>
      <trkpt lat="43.74538" lon="3.45329">
        <ele>515</ele>
        <time>2024-05-15T14:27:23+00:00</time>
      </trkpt>
      <trkpt lat="43.74508" lon="3.45354">
        <ele>520</ele>
        <time>2024-05-15T14:27:38+00:00</time>
      </trkpt>
      <trkpt lat="43.74489" lon="3.45351">
        <ele>523</ele>
        <time>2024-05-15T14:27:46+00:00</time>
      </trkpt>
      <trkpt lat="43.74451" lon="3.45327">
        <ele>524</ele>
        <time>2024-05-15T14:28:04+00:00</time>
      </trkpt>
      <trkpt lat="43.74408" lon="3.45312">
        <ele>523</ele>
        <time>2024-05-15T14:28:23+00:00</time>
      </trkpt>
      <trkpt lat="43.74383" lon="3.45315">
        <ele>524</ele>
        <time>2024-05-15T14:28:34+00:00</time>
      </trkpt>
      <trkpt lat="43.74364" lon="3.45328">
        <ele>528</ele>
        <time>2024-05-15T14:28:43+00:00</time>
      </trkpt>
      <trkpt lat="43.74351" lon="3.45317">
        <ele>531</ele>
        <time>2024-05-15T14:28:50+00:00</time>
      </trkpt>
      <trkpt lat="43.74325" lon="3.45274">
        <ele>528</ele>
        <time>2024-05-15T14:29:07+00:00</time>
      </trkpt>
      <trkpt lat="43.74288" lon="3.45237">
        <ele>527</ele>
        <time>2024-05-15T14:29:26+00:00</time>
      </trkpt>
      <trkpt lat="43.74206" lon="3.4522">
        <ele>529</ele>
        <time>2024-05-15T14:30:00+00:00</time>
      </trkpt>
      <trkpt lat="43.74182" lon="3.45227">
        <ele>529</ele>
        <time>2024-05-15T14:30:11+00:00</time>
      </trkpt>
      <trkpt lat="43.74096" lon="3.45279">
        <ele>535</ele>
        <time>2024-05-15T14:30:50+00:00</time>
      </trkpt>
      <trkpt lat="43.74078" lon="3.45276">
        <ele>534</ele>
        <time>2024-05-15T14:30:58+00:00</time>
      </trkpt>
      <trkpt lat="43.74072" lon="3.45262">
        <ele>535</ele>
        <time>2024-05-15T14:31:04+00:00</time>
      </trkpt>
      <trkpt lat="43.74077" lon="3.45236">
        <ele>533</ele>
        <time>2024-05-15T14:31:12+00:00</time>
      </trkpt>
      <trkpt lat="43.74064" lon="3.4521">
        <ele>534</ele>
        <time>2024-05-15T14:31:22+00:00</time>
      </trkpt>
      <trkpt lat="43.73992" lon="3.45197">
        <ele>542</ele>
        <time>2024-05-15T14:31:52+00:00</time>
      </trkpt>
      <trkpt lat="43.73882" lon="3.45256">
        <ele>546</ele>
        <time>2024-05-15T14:32:40+00:00</time>
      </trkpt>
      <trkpt lat="43.73862" lon="3.45281">
        <ele>548</ele>
        <time>2024-05-15T14:32:51+00:00</time>
      </trkpt>
      <trkpt lat="43.73829" lon="3.4527">
        <ele>548</ele>
        <time>2024-05-15T14:33:05+00:00</time>
      </trkpt>
      <trkpt lat="43.73802" lon="3.45272">
        <ele>548</ele>
        <time>2024-05-15T14:33:17+00:00</time>
      </trkpt>
      <trkpt lat="43.73769" lon="3.45286">
        <ele>549</ele>
        <time>2024-05-15T14:33:32+00:00</time>
      </trkpt>
      <trkpt lat="43.73732" lon="3.45278">
        <ele>550</ele>
        <time>2024-05-15T14:33:48+00:00</time>
      </trkpt>
      <trkpt lat="43.73659" lon="3.45242">
        <ele>549</ele>
        <time>2024-05-15T14:34:20+00:00</time>
      </trkpt>
      <trkpt lat="43.7366" lon="3.45256">
        <ele>551</ele>
        <time>2024-05-15T14:34:25+00:00</time>
      </trkpt>
      <trkpt lat="43.73653" lon="3.45267">
        <ele>552</ele>
        <time>2024-05-15T14:34:30+00:00</time>
      </trkpt>
      <trkpt lat="43.73618" lon="3.45281">
        <ele>555</ele>
        <time>2024-05-15T14:34:45+00:00</time>
      </trkpt>
      <trkpt lat="43.73581" lon="3.45282">
        <ele>556</ele>
        <time>2024-05-15T14:35:01+00:00</time>
      </trkpt>
      <trkpt lat="43.73525" lon="3.45316">
        <ele>555</ele>
        <time>2024-05-15T14:35:26+00:00</time>
      </trkpt>
      <trkpt lat="43.73523" lon="3.45352">
        <ele>558</ele>
        <time>2024-05-15T14:35:37+00:00</time>
      </trkpt>
      <trkpt lat="43.73531" lon="3.45373">
        <ele>558</ele>
        <time>2024-05-15T14:35:45+00:00</time>
      </trkpt>
      <trkpt lat="43.73649" lon="3.45529">
        <ele>572</ele>
        <time>2024-05-15T14:36:52+00:00</time>
      </trkpt>
      <trkpt lat="43.73658" lon="3.45561">
        <ele>574</ele>
        <time>2024-05-15T14:37:03+00:00</time>
      </trkpt>
      <trkpt lat="43.73669" lon="3.45697">
        <ele>580</ele>
        <time>2024-05-15T14:37:43+00:00</time>
      </trkpt>
      <trkpt lat="43.73715" lon="3.45812">
        <ele>587</ele>
        <time>2024-05-15T14:38:22+00:00</time>
      </trkpt>
      <trkpt lat="43.73719" lon="3.45919">
        <ele>590</ele>
        <time>2024-05-15T14:38:54+00:00</time>
      </trkpt>
      <trkpt lat="43.73728" lon="3.45976">
        <ele>597</ele>
        <time>2024-05-15T14:39:12+00:00</time>
      </trkpt>
      <trkpt lat="43.73719" lon="3.46043">
        <ele>595</ele>
        <time>2024-05-15T14:39:32+00:00</time>
      </trkpt>
      <trkpt lat="43.73717" lon="3.46087">
        <ele>598</ele>
        <time>2024-05-15T14:39:46+00:00</time>
      </trkpt>
      <trkpt lat="43.73676" lon="3.4626">
        <ele>609</ele>
        <time>2024-05-15T14:40:40+00:00</time>
      </trkpt>
      <trkpt lat="43.73656" lon="3.46305">
        <ele>611</ele>
        <time>2024-05-15T14:40:56+00:00</time>
      </trkpt>
      <trkpt lat="43.73653" lon="3.46328">
        <ele>616</ele>
        <time>2024-05-15T14:41:03+00:00</time>
      </trkpt>
      <trkpt lat="43.7366" lon="3.46335">
        <ele>616</ele>
        <time>2024-05-15T14:41:07+00:00</time>
      </trkpt>
      <trkpt lat="43.73671" lon="3.46332">
        <ele>615</ele>
        <time>2024-05-15T14:41:12+00:00</time>
      </trkpt>
      <trkpt lat="43.73701" lon="3.46228">
        <ele>617</ele>
        <time>2024-05-15T14:41:45+00:00</time>
      </trkpt>
      <trkpt lat="43.73757" lon="3.461">
        <ele>626</ele>
        <time>2024-05-15T14:42:29+00:00</time>
      </trkpt>
      <trkpt lat="43.73782" lon="3.45986">
        <ele>632</ele>
        <time>2024-05-15T14:43:04+00:00</time>
      </trkpt>
      <trkpt lat="43.73778" lon="3.45929">
        <ele>630</ele>
        <time>2024-05-15T14:43:22+00:00</time>
      </trkpt>
      <trkpt lat="43.73799" lon="3.45808">
        <ele>639</ele>
        <time>2024-05-15T14:43:59+00:00</time>
      </trkpt>
      <trkpt lat="43.73789" lon="3.45737">
        <ele>641</ele>
        <time>2024-05-15T14:44:21+00:00</time>
      </trkpt>
      <trkpt lat="43.7379" lon="3.45682">
        <ele>646</ele>
        <time>2024-05-15T14:44:38+00:00</time>
      </trkpt>
      <trkpt lat="43.738" lon="3.45625">
        <ele>646</ele>
        <time>2024-05-15T14:44:56+00:00</time>
      </trkpt>
      <trkpt lat="43.7382" lon="3.456">
        <ele>649</ele>
        <time>2024-05-15T14:45:07+00:00</time>
      </trkpt>
      <trkpt lat="43.73872" lon="3.45611">
        <ele>657</ele>
        <time>2024-05-15T14:45:29+00:00</time>
      </trkpt>
      <trkpt lat="43.73958" lon="3.45649">
        <ele>669</ele>
        <time>2024-05-15T14:46:06+00:00</time>
      </trkpt>
      <trkpt lat="43.73984" lon="3.45673">
        <ele>675</ele>
        <time>2024-05-15T14:46:19+00:00</time>
      </trkpt>
      <trkpt lat="43.74071" lon="3.45656">
        <ele>674</ele>
        <time>2024-05-15T14:46:55+00:00</time>
      </trkpt>
      <trkpt lat="43.74094" lon="3.45647">
        <ele>673</ele>
        <time>2024-05-15T14:47:05+00:00</time>
      </trkpt>
      <trkpt lat="43.74141" lon="3.45647">
        <ele>679</ele>
        <time>2024-05-15T14:47:25+00:00</time>
      </trkpt>
      <trkpt lat="43.7418" lon="3.45637">
        <ele>678</ele>
        <time>2024-05-15T14:47:42+00:00</time>
      </trkpt>
      <trkpt lat="43.74205" lon="3.45641">
        <ele>680</ele>
        <time>2024-05-15T14:47:53+00:00</time>
      </trkpt>
      <trkpt lat="43.7425" lon="3.45684">
        <ele>700</ele>
        <time>2024-05-15T14:48:16+00:00</time>
      </trkpt>
      <trkpt lat="43.7431" lon="3.45771">
        <ele>705</ele>
        <time>2024-05-15T14:48:52+00:00</time>
      </trkpt>
      <trkpt lat="43.74345" lon="3.45796">
        <ele>702</ele>
        <time>2024-05-15T14:49:08+00:00</time>
      </trkpt>
      <trkpt lat="43.7438" lon="3.45813">
        <ele>701</ele>
        <time>2024-05-15T14:49:24+00:00</time>
      </trkpt>
      <trkpt lat="43.74425" lon="3.45806">
        <ele>696</ele>
        <time>2024-05-15T14:49:43+00:00</time>
      </trkpt>
      <trkpt lat="43.74478" lon="3.45835">
        <ele>703</ele>
        <time>2024-05-15T14:50:07+00:00</time>
      </trkpt>
      <trkpt lat="43.74491" lon="3.45861">
        <ele>707</ele>
        <time>2024-05-15T14:50:17+00:00</time>
      </trkpt>
      <trkpt lat="43.74511" lon="3.45966">
        <ele>706</ele>
        <time>2024-05-15T14:50:49+00:00</time>
      </trkpt>
      <trkpt lat="43.74525" lon="3.46002">
        <ele>705</ele>
        <time>2024-05-15T14:51:01+00:00</time>
      </trkpt>
      <trkpt lat="43.74626" lon="3.46179">
        <ele>705</ele>
        <time>2024-05-15T14:52:08+00:00</time>
      </trkpt>
      <trkpt lat="43.74664" lon="3.46211">
        <ele>703</ele>
        <time>2024-05-15T14:52:27+00:00</time>
      </trkpt>
      <trkpt lat="43.74749" lon="3.46242">
        <ele>701</ele>
        <time>2024-05-15T14:53:03+00:00</time>
      </trkpt>
      <trkpt lat="43.74814" lon="3.46242">
        <ele>700</ele>
        <time>2024-05-15T14:53:30+00:00</time>
      </trkpt>
      <trkpt lat="43.74871" lon="3.46295">
        <ele>698</ele>
        <time>2024-05-15T14:53:58+00:00</time>
      </trkpt>
      <trkpt lat="43.74924" lon="3.4631">
        <ele>699</ele>
        <time>2024-05-15T14:54:21+00:00</time>
      </trkpt>
      <trkpt lat="43.74963" lon="3.46346">
        <ele>699</ele>
        <time>2024-05-15T14:54:41+00:00</time>
      </trkpt>
      <trkpt lat="43.75034" lon="3.46374">
        <ele>701</ele>
        <time>2024-05-15T14:55:12+00:00</time>
      </trkpt>
      <trkpt lat="43.75046" lon="3.46374">
        <ele>701</ele>
        <time>2024-05-15T14:55:18+00:00</time>
      </trkpt>
      <trkpt lat="43.75065" lon="3.46348">
        <ele>702</ele>
        <time>2024-05-15T14:55:29+00:00</time>
      </trkpt>
      <trkpt lat="43.75085" lon="3.46344">
        <ele>701</ele>
        <time>2024-05-15T14:55:38+00:00</time>
      </trkpt>
      <trkpt lat="43.75143" lon="3.4638">
        <ele>699</ele>
        <time>2024-05-15T14:56:04+00:00</time>
      </trkpt>
      <trkpt lat="43.75254" lon="3.46417">
        <ele>698</ele>
        <time>2024-05-15T14:56:51+00:00</time>
      </trkpt>
      <trkpt lat="43.75301" lon="3.4672">
        <ele>695</ele>
        <time>2024-05-15T14:58:22+00:00</time>
      </trkpt>
      <trkpt lat="43.75309" lon="3.46934">
        <ele>687</ele>
        <time>2024-05-15T14:59:25+00:00</time>
      </trkpt>
    </trkseg>
  </trk>
</gpx>